createdAt,value
2023-05-09T00:01:10.032Z,100725.24
2023-05-09T00:03:36.888Z,100723.85
2023-05-09T00:06:04.673Z,100728.38
2023-05-09T00:08:31.648Z,100727.66
2023-05-09T00:10:58.548Z,100724.52
2023-05-09T00:13:26.102Z,100722.26
2023-05-09T00:15:57.575Z,100722.09
2023-05-09T00:18:24.632Z,100722.09
2023-05-09T00:20:51.674Z,100719.48
2023-05-09T00:23:18.638Z,100725.58
2023-05-09T00:25:45.791Z,100724.17
2023-05-09T00:28:12.843Z,100726.27
2023-05-09T00:30:41.426Z,100727.15
2023-05-09T00:33:08.325Z,100725.08
2023-05-09T00:35:35.641Z,100722.81
2023-05-09T00:38:02.496Z,100720.36
2023-05-09T00:40:29.386Z,100717.58
2023-05-09T00:42:58.470Z,100721.08
2023-05-09T00:45:25.503Z,100723.52
2023-05-09T00:47:52.695Z,100722.31
2023-05-09T00:50:19.753Z,100724.40
2023-05-09T00:52:46.632Z,100724.58
2023-05-09T00:55:13.680Z,100725.09
2023-05-09T00:57:40.963Z,100721.80
2023-05-09T01:00:13.504Z,100723.02
2023-05-09T01:02:48.705Z,100720.56
2023-05-09T01:05:15.976Z,100725.45
2023-05-09T01:07:52.617Z,100721.11
2023-05-09T01:10:32.573Z,100723.20
2023-05-09T01:13:23.122Z,100721.64
2023-05-09T01:16:06.561Z,100722.17
2023-05-09T01:18:37.002Z,100722.89
2023-05-09T01:21:09.069Z,100721.34
2023-05-09T01:23:45.294Z,100720.98
2023-05-09T01:26:19.541Z,100723.95
2023-05-09T01:29:01.974Z,100725.70
2023-05-09T01:31:29.039Z,100722.72
2023-05-09T01:33:58.314Z,100721.67
2023-05-09T01:36:25.473Z,100723.59
2023-05-09T01:38:52.353Z,100721.69
2023-05-09T01:41:19.274Z,100724.30
2023-05-09T01:43:46.452Z,100721.16
2023-05-09T01:46:13.621Z,100724.31
2023-05-09T01:48:41.456Z,100724.50
2023-05-09T01:51:10.146Z,100721.90
2023-05-09T01:53:36.965Z,100724.52
2023-05-09T01:56:04.566Z,100721.55
2023-05-09T01:58:32.536Z,100721.01
2023-05-09T02:01:00.622Z,100720.85
2023-05-09T02:03:27.721Z,100720.85
2023-05-09T02:05:55.084Z,100720.34
2023-05-09T02:08:22.282Z,100723.83
2023-05-09T02:10:49.747Z,100719.64
2023-05-09T02:13:16.696Z,100720.34
2023-05-09T02:15:44.366Z,100721.91
2023-05-09T02:18:11.365Z,100716.54
2023-05-09T02:20:38.271Z,100720.54
2023-05-09T02:23:05.219Z,100718.63
2023-05-09T02:25:33.306Z,100716.54
2023-05-09T02:28:00.241Z,100722.81
2023-05-09T02:30:27.257Z,100725.26
2023-05-09T02:32:57.809Z,100726.30
2023-05-09T02:35:25.498Z,100727.71
2023-05-09T02:37:52.455Z,100731.19
2023-05-09T02:40:20.037Z,100729.63
2023-05-09T02:42:46.967Z,100727.18
2023-05-09T02:45:14.019Z,100731.02
2023-05-09T02:47:41.154Z,100727.18
2023-05-09T02:50:08.846Z,100729.44
2023-05-09T02:52:36.217Z,100729.78
2023-05-09T02:55:03.577Z,100733.27
2023-05-09T02:57:31.332Z,100732.55
2023-05-09T02:59:58.286Z,100732.02
2023-05-09T03:02:25.608Z,100731.99
2023-05-09T03:04:52.727Z,100734.77
2023-05-09T03:07:19.533Z,100736.15
2023-05-09T03:09:46.511Z,100737.17
2023-05-09T03:12:13.447Z,100738.05
2023-05-09T03:14:40.376Z,100741.35
2023-05-09T03:17:07.865Z,100744.65
2023-05-09T03:19:35.399Z,100744.11
2023-05-09T03:22:02.276Z,100747.04
2023-05-09T03:24:30.997Z,100748.92
2023-05-09T03:26:57.920Z,100748.03
2023-05-09T03:29:25.502Z,100750.63
2023-05-09T03:31:52.758Z,100750.08
2023-05-09T03:34:19.960Z,100750.55
2023-05-09T03:36:46.824Z,100750.71
2023-05-09T03:39:14.536Z,100753.65
2023-05-09T03:41:44.366Z,100755.35
2023-05-09T03:44:11.494Z,100758.80
2023-05-09T03:46:38.420Z,100758.08
2023-05-09T03:49:05.800Z,100760.48
2023-05-09T03:51:32.864Z,100763.76
2023-05-09T03:54:00.630Z,100765.12
2023-05-09T03:56:28.700Z,100764.75
2023-05-09T03:58:55.757Z,100764.02
2023-05-09T04:01:22.842Z,100764.68
2023-05-09T04:03:50.429Z,100765.19
2023-05-09T04:06:17.328Z,100768.30
2023-05-09T04:08:44.703Z,100770.23
2023-05-09T04:11:11.643Z,100768.80
2023-05-09T04:13:40.561Z,100767.88
2023-05-09T04:16:17.447Z,100773.08
2023-05-09T04:18:44.773Z,100776.73
2023-05-09T04:21:11.723Z,100775.85
2023-05-09T04:23:39.494Z,100776.35
2023-05-09T04:26:07.583Z,100779.83
2023-05-09T04:28:35.384Z,100782.45
2023-05-09T04:31:03.310Z,100780.89
2023-05-09T04:33:31.086Z,100782.25
2023-05-09T04:36:00.673Z,100782.58
2023-05-09T04:38:27.877Z,100783.40
2023-05-09T04:40:55.432Z,100783.84
2023-05-09T04:43:22.319Z,100784.27
2023-05-09T04:45:49.262Z,100785.77
2023-05-09T04:48:16.167Z,100781.69
2023-05-09T04:50:43.459Z,100787.56
2023-05-09T04:53:11.297Z,100788.31
2023-05-09T04:55:38.577Z,100789.59
2023-05-09T04:58:06.014Z,100786.13
2023-05-09T05:00:32.975Z,100787.73
2023-05-09T05:03:00.062Z,100786.23
2023-05-09T05:05:28.059Z,100790.90
2023-05-09T05:07:55.285Z,100785.60
2023-05-09T05:10:25.809Z,100787.81
2023-05-09T05:12:59.294Z,100784.05
2023-05-09T05:15:27.262Z,100784.13
2023-05-09T05:17:54.720Z,100782.27
2023-05-09T05:20:22.598Z,100783.54
2023-05-09T05:22:49.754Z,100787.06
2023-05-09T05:25:18.680Z,100788.45
2023-05-09T05:27:46.008Z,100789.85
2023-05-09T05:30:15.971Z,100787.63
2023-05-09T05:32:44.063Z,100787.05
2023-05-09T05:35:12.366Z,100787.13
2023-05-09T05:37:40.260Z,100785.52
2023-05-09T05:40:08.246Z,100784.80
2023-05-09T05:42:35.802Z,100787.09
2023-05-09T05:45:04.801Z,100784.14
2023-05-09T05:47:33.682Z,100787.52
2023-05-09T05:50:01.966Z,100788.65
2023-05-09T05:52:29.742Z,100788.32
2023-05-09T05:54:57.434Z,100788.27
2023-05-09T05:57:24.672Z,100784.39
2023-05-09T05:59:52.574Z,100780.80
2023-05-09T06:02:19.500Z,100783.86
2023-05-09T06:04:46.736Z,100789.60
2023-05-09T06:07:14.157Z,100786.85
2023-05-09T06:09:41.065Z,100789.20
2023-05-09T06:12:08.369Z,100787.42
2023-05-09T06:14:35.423Z,100783.11
2023-05-09T06:17:02.402Z,100784.70
2023-05-09T06:19:29.417Z,100783.26
2023-05-09T06:21:56.543Z,100782.96
2023-05-09T06:24:34.460Z,100781.86
2023-05-09T06:27:04.366Z,100781.55
2023-05-09T06:29:31.241Z,100780.34
2023-05-09T06:31:58.215Z,100782.32
2023-05-09T06:34:25.214Z,100782.05
2023-05-09T06:36:52.775Z,100785.33
2023-05-09T06:39:19.721Z,100782.21
2023-05-09T06:41:46.798Z,100778.98
2023-05-09T06:44:19.569Z,100775.96
2023-05-09T06:46:46.676Z,100770.94
2023-05-09T06:49:14.399Z,100775.54
2023-05-09T06:51:41.352Z,100773.73
2023-05-09T06:54:08.291Z,100776.94
2023-05-09T06:56:35.357Z,100775.91
2023-05-09T06:59:02.243Z,100770.98
2023-05-09T07:01:29.284Z,100767.98
2023-05-09T07:03:56.232Z,100759.13
2023-05-09T07:06:23.153Z,100759.49
2023-05-09T07:08:50.031Z,100758.45
2023-05-09T07:11:16.995Z,100757.06
2023-05-09T07:13:43.906Z,100747.23
2023-05-09T07:16:10.951Z,100740.99
2023-05-09T07:18:37.919Z,100744.64
2023-05-09T07:21:05.091Z,100744.61
2023-05-09T07:23:31.962Z,100738.08
2023-05-09T07:25:59.181Z,100736.38
2023-05-09T07:28:26.312Z,100733.08
2023-05-09T07:30:55.634Z,100728.50
2023-05-09T07:33:23.006Z,100723.15
2023-05-09T07:35:49.939Z,100718.63
2023-05-09T07:38:16.895Z,100717.55
2023-05-09T07:40:43.839Z,100714.89
2023-05-09T07:43:10.742Z,100710.89
2023-05-09T07:45:37.708Z,100708.05
2023-05-09T07:48:05.359Z,100705.05
2023-05-09T07:50:32.360Z,100697.69
2023-05-09T07:53:00.257Z,100706.80
2023-05-09T07:55:27.148Z,100707.63
2023-05-09T07:57:54.052Z,100711.71
2023-05-09T08:00:23.919Z,100711.80
2023-05-09T08:02:52.133Z,100714.38
2023-05-09T08:05:19.297Z,100708.53
2023-05-09T08:07:46.444Z,100707.48
2023-05-09T08:10:13.382Z,100704.66
2023-05-09T08:12:40.422Z,100709.96
2023-05-09T08:15:08.282Z,100708.40
2023-05-09T08:17:35.543Z,100705.05
2023-05-09T08:20:02.543Z,100712.46
2023-05-09T08:22:29.479Z,100710.67
2023-05-09T08:24:56.430Z,100702.40
2023-05-09T08:27:23.418Z,100696.97
2023-05-09T08:29:50.649Z,100694.84
2023-05-09T08:32:19.977Z,100697.41
2023-05-09T08:34:46.895Z,100699.61
2023-05-09T08:37:15.283Z,100692.61
2023-05-09T08:39:42.728Z,100693.98
2023-05-09T08:42:09.786Z,100685.84
2023-05-09T08:44:36.859Z,100686.58
2023-05-09T08:47:04.324Z,100691.31
2023-05-09T08:49:31.277Z,100691.27
2023-05-09T08:51:58.204Z,100692.20
2023-05-09T08:54:25.166Z,100694.98
2023-05-09T08:56:52.059Z,100687.89
2023-05-09T08:59:19.746Z,100686.50
2023-05-09T09:01:46.804Z,100677.31
2023-05-09T09:04:13.795Z,100678.13
2023-05-09T09:06:40.957Z,100677.88
2023-05-09T09:09:11.270Z,100678.75
2023-05-09T09:11:39.174Z,100688.10
2023-05-09T09:14:11.957Z,100686.48
2023-05-09T09:16:38.907Z,100682.81
2023-05-09T09:19:05.909Z,100682.35
2023-05-09T09:21:34.448Z,100677.04
2023-05-09T09:24:01.385Z,100671.66
2023-05-09T09:26:31.927Z,100673.84
2023-05-09T09:28:58.854Z,100671.03
2023-05-09T09:31:27.624Z,100666.93
2023-05-09T09:34:01.549Z,100661.98
2023-05-09T09:36:32.606Z,100664.94
2023-05-09T09:39:04.817Z,100663.63
2023-05-09T09:41:36.361Z,100662.39
2023-05-09T09:44:16.495Z,100662.40
2023-05-09T09:46:51.100Z,100665.73
2023-05-09T09:49:22.478Z,100664.79
2023-05-09T09:51:53.896Z,100662.06
2023-05-09T09:54:21.496Z,100656.23
2023-05-09T09:56:50.075Z,100656.75
2023-05-09T09:59:19.775Z,100658.75
2023-05-09T10:01:59.024Z,100653.56
2023-05-09T10:04:31.326Z,100657.14
2023-05-09T10:06:59.894Z,100654.23
2023-05-09T10:09:27.571Z,100655.05
2023-05-09T10:11:55.725Z,100656.58
2023-05-09T10:14:24.126Z,100654.88
2023-05-09T10:16:57.801Z,100651.86
2023-05-09T10:19:27.313Z,100651.16
2023-05-09T10:21:58.378Z,100649.66
2023-05-09T10:24:47.856Z,100652.48
2023-05-09T10:27:15.195Z,100649.97
2023-05-09T10:29:46.964Z,100645.98
2023-05-09T10:33:03.146Z,100645.87
2023-05-09T10:35:33.744Z,100642.11
2023-05-09T10:38:00.919Z,100642.55
2023-05-09T10:40:28.492Z,100643.61
2023-05-09T10:42:55.567Z,100639.52
2023-05-09T10:45:22.685Z,100637.40
2023-05-09T10:47:51.682Z,100632.44
2023-05-09T10:50:18.964Z,100626.55
2023-05-09T10:53:08.925Z,100625.67
2023-05-09T10:55:36.672Z,100624.61
2023-05-09T10:58:31.604Z,100624.25
2023-05-09T11:00:59.386Z,100627.17
2023-05-09T11:03:26.947Z,100627.55
2023-05-09T11:05:58.277Z,100628.23
2023-05-09T11:08:29.448Z,100623.90
2023-05-09T11:11:10.829Z,100624.47
2023-05-09T11:13:38.623Z,100618.16
2023-05-09T11:16:09.821Z,100614.15
2023-05-09T11:18:49.359Z,100612.77
2023-05-09T11:21:16.429Z,100609.14
2023-05-09T11:23:43.241Z,100605.38
2023-05-09T11:26:10.227Z,100607.80
2023-05-09T11:28:37.912Z,100608.21
2023-05-09T11:31:15.159Z,100604.02
2023-05-09T11:33:43.241Z,100602.13
2023-05-09T11:36:32.082Z,100601.02
2023-05-09T11:39:06.577Z,100598.95
2023-05-09T11:42:00.068Z,100599.65
2023-05-09T11:44:27.983Z,100599.52
2023-05-09T11:46:55.514Z,100598.61
2023-05-09T11:49:22.429Z,100597.36
2023-05-09T11:51:49.294Z,100593.88
2023-05-09T11:54:16.312Z,100596.27
2023-05-09T11:56:43.174Z,100587.43
2023-05-09T11:59:13.279Z,100583.82
2023-05-09T12:01:40.296Z,100586.50
2023-05-09T12:04:08.622Z,100583.04
2023-05-09T12:06:35.689Z,100583.23
2023-05-09T12:09:02.706Z,100583.15
2023-05-09T12:11:32.529Z,100579.90
2023-05-09T12:13:59.511Z,100578.35
2023-05-09T12:16:26.480Z,100574.98
2023-05-09T12:18:53.482Z,100568.27
2023-05-09T12:21:20.848Z,100569.55
2023-05-09T12:23:50.725Z,100564.30
2023-05-09T12:26:18.799Z,100564.30
2023-05-09T12:28:46.060Z,100559.36
2023-05-09T12:31:13.278Z,100557.33
2023-05-09T12:33:40.253Z,100557.08
2023-05-09T12:36:12.603Z,100555.58
2023-05-09T12:38:39.505Z,100551.04
2023-05-09T12:41:12.994Z,100552.46
2023-05-09T12:43:49.449Z,100552.46
2023-05-09T12:46:20.269Z,100549.69
2023-05-09T12:48:48.398Z,100546.34
2023-05-09T12:51:20.372Z,100553.64
2023-05-09T12:53:47.220Z,100550.16
2023-05-09T12:56:16.591Z,100546.89
2023-05-09T12:58:51.449Z,100543.38
2023-05-09T13:01:22.922Z,100544.84
2023-05-09T13:03:53.843Z,100542.43
2023-05-09T13:06:21.349Z,100541.55
2023-05-09T13:09:00.590Z,100538.77
2023-05-09T13:11:27.517Z,100535.59
2023-05-09T13:13:55.205Z,100534.30
2023-05-09T13:16:22.336Z,100534.84
2023-05-09T13:18:49.254Z,100535.34
2023-05-09T13:21:16.394Z,100535.15
2023-05-09T13:23:44.679Z,100532.08
2023-05-09T13:26:11.591Z,100530.35
2023-05-09T13:28:38.489Z,100526.91
2023-05-09T13:31:05.492Z,100528.63
2023-05-09T13:33:32.485Z,100524.94
2023-05-09T13:35:59.342Z,100527.85
2023-05-09T13:38:26.409Z,100524.23
2023-05-09T13:40:53.404Z,100524.91
2023-05-09T13:43:20.298Z,100523.13
2023-05-09T13:45:47.256Z,100521.23
2023-05-09T13:48:14.390Z,100521.06
2023-05-09T13:50:41.609Z,100521.67
2023-05-09T13:53:08.607Z,100525.31
2023-05-09T13:55:35.767Z,100522.93
2023-05-09T13:58:02.710Z,100516.96
2023-05-09T14:00:29.663Z,100520.07
2023-05-09T14:02:56.541Z,100515.27
2023-05-09T14:05:23.576Z,100516.98
2023-05-09T14:07:50.504Z,100515.00
2023-05-09T14:10:17.903Z,100510.54
2023-05-09T14:12:46.851Z,100513.52
2023-05-09T14:15:14.156Z,100512.27
2023-05-09T14:17:41.565Z,100512.91
2023-05-09T14:20:09.286Z,100511.52
2023-05-09T14:22:36.145Z,100513.02
2023-05-09T14:25:02.974Z,100509.13
2023-05-09T14:27:30.230Z,100511.40
2023-05-09T14:29:57.687Z,100509.88
2023-05-09T14:32:25.461Z,100507.42
2023-05-09T14:34:52.307Z,100503.19
2023-05-09T14:37:19.268Z,100505.21
2023-05-09T14:39:47.030Z,100506.38
2023-05-09T14:42:14.498Z,100504.60
2023-05-09T14:44:41.878Z,100507.57
2023-05-09T14:47:09.974Z,100506.56
2023-05-09T14:49:37.998Z,100504.73
2023-05-09T14:52:05.671Z,100509.06
2023-05-09T14:54:32.823Z,100506.82
2023-05-09T14:57:02.108Z,100507.82
2023-05-09T14:59:29.724Z,100506.42
2023-05-09T15:01:56.557Z,100502.27
2023-05-09T15:04:25.751Z,100502.73
2023-05-09T15:06:52.687Z,100503.52
2023-05-09T15:09:19.711Z,100503.10
2023-05-09T15:11:48.864Z,100500.11
2023-05-09T15:14:16.943Z,100501.84
2023-05-09T15:16:44.372Z,100501.80
2023-05-09T15:19:11.510Z,100499.16
2023-05-09T15:21:38.550Z,100505.05
2023-05-09T15:24:06.366Z,100500.95
2023-05-09T15:26:33.333Z,100499.33
2023-05-09T15:29:00.163Z,100500.52
2023-05-09T15:31:31.748Z,100500.19
2023-05-09T15:33:58.819Z,100503.13
2023-05-09T15:36:25.686Z,100498.86
2023-05-09T15:38:53.004Z,100499.49
2023-05-09T15:41:20.061Z,100498.41
2023-05-09T15:43:47.010Z,100498.39
2023-05-09T15:46:14.110Z,100497.37
2023-05-09T15:48:41.210Z,100497.34
2023-05-09T15:51:09.686Z,100496.89
2023-05-09T15:53:36.577Z,100498.17
2023-05-09T15:56:03.925Z,100497.35
2023-05-09T15:58:30.906Z,100497.09
2023-05-09T16:00:57.826Z,100499.15
2023-05-09T16:03:25.193Z,100492.52
2023-05-09T16:05:52.443Z,100490.87
2023-05-09T16:08:19.256Z,100490.41
2023-05-09T16:10:49.252Z,100488.34
2023-05-09T16:13:19.088Z,100487.54
2023-05-09T16:15:48.234Z,100484.94
2023-05-09T16:18:15.220Z,100484.19
2023-05-09T16:20:44.218Z,100479.05
2023-05-09T16:23:11.639Z,100477.11
2023-05-09T16:25:38.768Z,100476.77
2023-05-09T16:28:07.316Z,100478.36
2023-05-09T16:30:34.709Z,100481.36
2023-05-09T16:33:01.638Z,100479.61
2023-05-09T16:35:29.051Z,100480.83
2023-05-09T16:37:55.989Z,100478.18
2023-05-09T16:40:23.038Z,100475.90
2023-05-09T16:42:50.008Z,100476.27
2023-05-09T16:45:17.076Z,100475.03
2023-05-09T16:47:43.975Z,100480.11
2023-05-09T16:50:11.270Z,100479.25
2023-05-09T16:52:38.152Z,100482.90
2023-05-09T16:55:05.938Z,100484.27
2023-05-09T16:57:33.440Z,100485.30
2023-05-09T17:00:00.442Z,100485.61
2023-05-09T17:02:27.548Z,100486.44
2023-05-09T17:04:54.909Z,100485.04
2023-05-09T17:07:21.872Z,100482.87
2023-05-09T17:09:49.764Z,100487.88
2023-05-09T17:12:18.598Z,100486.44
2023-05-09T17:14:46.857Z,100485.84
2023-05-09T17:17:14.808Z,100488.77
2023-05-09T17:19:41.681Z,100490.13
2023-05-09T17:22:08.859Z,100487.59
2023-05-09T17:24:35.766Z,100487.04
2023-05-09T17:27:02.837Z,100488.59
2023-05-09T17:29:30.816Z,100488.23
2023-05-09T17:32:00.979Z,100488.73
2023-05-09T17:34:28.585Z,100490.41
2023-05-09T17:36:55.447Z,100488.10
2023-05-09T17:39:23.031Z,100490.48
2023-05-09T17:41:49.918Z,100490.79
2023-05-09T17:44:16.868Z,100492.15
2023-05-09T17:46:44.173Z,100494.04
2023-05-09T17:49:14.130Z,100493.12
2023-05-09T17:51:41.275Z,100491.86
2023-05-09T17:54:08.194Z,100493.35
2023-05-09T17:56:35.106Z,100496.77
2023-05-09T17:59:02.059Z,100496.86
2023-05-09T18:01:29.236Z,100502.50
2023-05-09T18:03:57.243Z,100498.73
2023-05-09T18:06:24.392Z,100498.32
2023-05-09T18:08:51.526Z,100497.52
2023-05-09T18:11:18.350Z,100494.96
2023-05-09T18:13:45.179Z,100497.25
2023-05-09T18:16:12.166Z,100495.35
2023-05-09T18:18:39.302Z,100495.58
2023-05-09T18:21:08.129Z,100491.05
2023-05-09T18:23:35.149Z,100490.23
2023-05-09T18:26:02.197Z,100492.91
2023-05-09T18:28:29.053Z,100491.39
2023-05-09T18:30:57.745Z,100493.89
2023-05-09T18:33:27.083Z,100495.30
2023-05-09T18:35:54.476Z,100495.64
2023-05-09T18:38:21.683Z,100498.14
2023-05-09T18:40:48.735Z,100499.90
2023-05-09T18:43:17.103Z,100498.36
2023-05-09T18:45:45.195Z,100498.96
2023-05-09T18:48:12.650Z,100500.09
2023-05-09T18:50:40.315Z,100500.64
2023-05-09T18:53:07.718Z,100495.45
2023-05-09T18:55:34.724Z,100500.22
2023-05-09T18:58:01.672Z,100500.42
2023-05-09T19:00:28.554Z,100498.57
2023-05-09T19:02:55.487Z,100497.91
2023-05-09T19:05:22.631Z,100491.66
2023-05-09T19:07:49.825Z,100493.65
2023-05-09T19:10:18.286Z,100493.34
2023-05-09T19:12:46.261Z,100492.16
2023-05-09T19:15:13.307Z,100493.10
2023-05-09T19:17:40.482Z,100491.08
2023-05-09T19:20:08.751Z,100490.61
2023-05-09T19:22:36.333Z,100491.52
2023-05-09T19:25:03.189Z,100491.56
2023-05-09T19:27:29.985Z,100488.45
2023-05-09T19:29:56.974Z,100487.11
2023-05-09T19:32:23.819Z,100489.09
2023-05-09T19:34:50.725Z,100489.69
2023-05-09T19:37:17.710Z,100489.23
2023-05-09T19:39:44.656Z,100489.82
2023-05-09T19:42:11.613Z,100489.02
2023-05-09T19:44:39.098Z,100488.70
2023-05-09T19:47:06.135Z,100490.52
2023-05-09T19:49:33.192Z,100493.35
2023-05-09T19:52:00.147Z,100490.41
2023-05-09T19:54:27.235Z,100492.70
2023-05-09T19:56:54.421Z,100489.23
2023-05-09T19:59:21.393Z,100487.48
2023-05-09T20:01:48.422Z,100488.73
2023-05-09T20:04:16.554Z,100491.89
2023-05-09T20:06:43.483Z,100487.54
2023-05-09T20:09:10.357Z,100488.77
2023-05-09T20:11:37.274Z,100487.06
2023-05-09T20:14:04.126Z,100484.98
2023-05-09T20:16:31.126Z,100480.30
2023-05-09T20:18:58.658Z,100480.30
2023-05-09T20:21:27.321Z,100472.30
2023-05-09T20:23:54.157Z,100473.34
2023-05-09T20:26:24.455Z,100470.56
2023-05-09T20:28:54.588Z,100471.27
2023-05-09T20:31:21.390Z,100471.09
2023-05-09T20:33:48.189Z,100473.04
2023-05-09T20:36:15.524Z,100466.05
2023-05-09T20:38:42.430Z,100468.15
2023-05-09T20:41:09.284Z,100467.98
2023-05-09T20:43:36.395Z,100467.13
2023-05-09T20:46:03.428Z,100474.30
2023-05-09T20:48:30.351Z,100472.89
2023-05-09T20:50:57.220Z,100468.02
2023-05-09T20:53:26.614Z,100466.48
2023-05-09T20:55:53.864Z,100467.37
2023-05-09T20:58:20.698Z,100467.90
2023-05-09T21:00:47.923Z,100462.52
2023-05-09T21:03:15.035Z,100465.83
2023-05-09T21:05:41.968Z,100466.18
2023-05-09T21:08:08.839Z,100467.77
2023-05-09T21:10:35.645Z,100463.76
2023-05-09T21:13:02.534Z,100466.53
2023-05-09T21:15:29.346Z,100467.40
2023-05-09T21:17:56.187Z,100468.29
2023-05-09T21:20:23.061Z,100467.44
2023-05-09T21:22:49.912Z,100469.20
2023-05-09T21:25:17.642Z,100463.13
2023-05-09T21:27:44.562Z,100465.75
2023-05-09T21:30:11.895Z,100462.29
2023-05-09T21:32:38.726Z,100457.77
2023-05-09T21:35:10.806Z,100456.05
2023-05-09T21:37:37.762Z,100451.89
2023-05-09T21:40:05.962Z,100447.90
2023-05-09T21:42:32.983Z,100445.34
2023-05-09T21:44:59.821Z,100442.21
2023-05-09T21:47:27.229Z,100437.38
2023-05-09T21:49:54.858Z,100438.65
2023-05-09T21:52:23.685Z,100436.06
2023-05-09T21:54:50.558Z,100434.18
2023-05-09T21:57:17.451Z,100431.77
2023-05-09T21:59:44.531Z,100431.64
2023-05-09T22:02:11.434Z,100429.73
2023-05-09T22:04:40.321Z,100427.34
2023-05-09T22:07:07.538Z,100428.25
2023-05-09T22:09:34.869Z,100425.31
2023-05-09T22:12:01.741Z,100422.40
2023-05-09T22:14:28.669Z,100421.39
2023-05-09T22:16:55.497Z,100422.80
2023-05-09T22:19:22.368Z,100421.79
2023-05-09T22:21:49.467Z,100425.31
2023-05-09T22:24:16.375Z,100420.83
2023-05-09T22:26:43.427Z,100419.64
2023-05-09T22:29:10.587Z,100421.73
2023-05-09T22:31:37.425Z,100416.38
2023-05-09T22:34:04.376Z,100418.52
2023-05-09T22:36:32.358Z,100417.32
2023-05-09T22:38:59.307Z,100417.68
2023-05-09T22:41:26.367Z,100415.27
2023-05-09T22:43:53.210Z,100413.36
2023-05-09T22:46:20.260Z,100414.24
2023-05-09T22:48:47.211Z,100412.86
2023-05-09T22:51:15.199Z,100408.85
2023-05-09T22:53:42.169Z,100406.41
2023-05-09T22:56:09.601Z,100403.27
2023-05-09T22:58:36.760Z,100403.98
2023-05-09T23:01:04.035Z,100398.23
2023-05-09T23:03:31.012Z,100397.52
2023-05-09T23:05:57.921Z,100395.23
2023-05-09T23:08:24.880Z,100396.09
2023-05-09T23:10:51.778Z,100396.10
2023-05-09T23:13:18.691Z,100398.88
2023-05-09T23:15:47.108Z,100396.44
2023-05-09T23:18:14.152Z,100390.51
2023-05-09T23:20:41.021Z,100394.50
2023-05-09T23:23:07.908Z,100392.57
2023-05-09T23:25:34.756Z,100388.36
2023-05-09T23:28:01.620Z,100389.58
2023-05-09T23:30:28.461Z,100386.27
2023-05-09T23:32:56.464Z,100385.56
2023-05-09T23:35:23.720Z,100382.77
2023-05-09T23:37:50.748Z,100382.92
2023-05-09T23:40:17.914Z,100381.68
2023-05-09T23:42:44.959Z,100378.34
2023-05-09T23:45:12.890Z,100379.55
2023-05-09T23:47:39.794Z,100376.05
2023-05-09T23:50:07.755Z,100370.33
2023-05-09T23:52:34.732Z,100367.56
2023-05-09T23:55:02.070Z,100369.66
2023-05-09T23:57:29.012Z,100365.48
2023-05-09T23:59:55.806Z,100365.71
